createdAt,value
2024-01-12T00:01:00.607Z,-3.70
2024-01-12T00:03:30.956Z,-3.70
2024-01-12T00:05:59.125Z,-3.70
2024-01-12T00:08:27.293Z,-3.60
2024-01-12T00:10:55.418Z,-3.60
2024-01-12T00:13:23.799Z,-3.60
2024-01-12T00:15:51.885Z,-3.50
2024-01-12T00:18:20.013Z,-3.50
2024-01-12T00:20:49.592Z,-3.40
2024-01-12T00:23:17.858Z,-3.40
2024-01-12T00:25:45.851Z,-3.40
2024-01-12T00:28:15.575Z,-3.30
2024-01-12T00:30:46.313Z,-3.30
2024-01-12T00:33:15.324Z,-3.30
2024-01-12T00:35:43.451Z,-3.40
2024-01-12T00:38:12.946Z,-3.40
2024-01-12T00:40:41.029Z,-3.50
2024-01-12T00:43:09.608Z,-3.50
2024-01-12T00:45:37.601Z,-3.50
2024-01-12T00:48:08.189Z,-3.50
2024-01-12T00:50:36.328Z,-3.50
2024-01-12T00:53:04.492Z,-3.50
2024-01-12T00:55:34.252Z,-3.50
2024-01-12T00:58:03.165Z,-3.50
2024-01-12T01:00:31.923Z,-3.50
2024-01-12T01:03:03.398Z,-3.60
2024-01-12T01:05:31.811Z,-3.60
2024-01-12T01:08:00.169Z,-3.60
2024-01-12T01:10:28.172Z,-3.60
2024-01-12T01:12:57.550Z,-3.70
2024-01-12T01:15:25.782Z,-3.70
2024-01-12T01:17:54.131Z,-3.70
2024-01-12T01:20:22.972Z,-3.80
2024-01-12T01:22:51.458Z,-3.80
2024-01-12T01:25:20.779Z,-3.90
2024-01-12T01:27:48.829Z,-3.90
2024-01-12T01:30:18.362Z,-4.00
2024-01-12T01:32:46.461Z,-4.10
2024-01-12T01:35:14.830Z,-4.10
2024-01-12T01:37:42.145Z,-4.10
2024-01-12T01:40:10.614Z,-4.20
2024-01-12T01:42:38.758Z,-4.20
2024-01-12T01:45:07.550Z,-4.20
2024-01-12T01:47:37.184Z,-4.20
2024-01-12T01:50:06.515Z,-4.30
2024-01-12T01:52:34.684Z,-4.40
2024-01-12T01:55:03.212Z,-4.40
2024-01-12T01:57:33.350Z,-4.40
2024-01-12T02:00:02.198Z,-4.50
2024-01-12T02:02:42.022Z,-4.50
2024-01-12T02:05:10.463Z,-4.50
2024-01-12T02:07:39.691Z,-4.60
2024-01-12T02:10:09.112Z,-4.60
2024-01-12T02:12:37.629Z,-4.70
2024-01-12T02:15:08.382Z,-4.60
2024-01-12T02:17:36.823Z,-4.60
2024-01-12T02:20:07.569Z,-4.70
2024-01-12T02:22:36.950Z,-4.70
2024-01-12T02:25:06.544Z,-4.70
2024-01-12T02:27:34.819Z,-4.70
2024-01-12T02:30:04.267Z,-4.70
2024-01-12T02:32:32.391Z,-4.80
2024-01-12T02:35:00.397Z,-4.80
2024-01-12T02:37:29.255Z,-4.70
2024-01-12T02:39:58.932Z,-4.80
2024-01-12T02:42:26.893Z,-4.80
2024-01-12T02:44:55.170Z,-4.80
2024-01-12T02:51:23.066Z,-4.90
2024-01-12T02:53:50.527Z,-4.90
2024-01-12T02:56:19.901Z,-4.90
2024-01-12T02:58:47.914Z,-4.90
2024-01-12T03:01:19.326Z,-4.90
2024-01-12T03:03:47.465Z,-5.00
2024-01-12T03:06:16.018Z,-5.00
2024-01-12T03:08:44.368Z,-5.10
2024-01-12T03:11:12.489Z,-5.20
2024-01-12T03:13:41.792Z,-5.20
2024-01-12T03:16:20.131Z,-5.20
2024-01-12T03:18:49.954Z,-5.20
2024-01-12T03:21:19.418Z,-5.10
2024-01-12T03:23:49.110Z,-5.20
2024-01-12T03:26:17.902Z,-5.20
2024-01-12T03:28:47.460Z,-5.20
2024-01-12T03:31:19.436Z,-5.30
2024-01-12T03:33:48.324Z,-5.20
2024-01-12T03:36:18.139Z,-5.20
2024-01-12T03:38:46.932Z,-5.30
2024-01-12T03:41:16.201Z,-5.30
2024-01-12T03:43:44.415Z,-5.40
2024-01-12T03:46:14.174Z,-5.40
2024-01-12T03:48:43.049Z,-5.40
2024-01-12T03:51:12.815Z,-5.40
2024-01-12T03:53:40.854Z,-5.40
2024-01-12T03:56:09.053Z,-5.40
2024-01-12T03:58:39.073Z,-5.40
2024-01-12T04:01:08.425Z,-5.40
2024-01-12T04:03:38.828Z,-5.40
2024-01-12T04:06:10.491Z,-5.50
2024-01-12T04:08:38.698Z,-5.50
2024-01-12T04:11:08.209Z,-5.50
2024-01-12T04:13:36.194Z,-5.60
2024-01-12T04:16:04.377Z,-5.60
2024-01-12T04:18:35.339Z,-5.60
2024-01-12T04:21:05.712Z,-5.50
2024-01-12T04:23:33.849Z,-5.50
2024-01-12T04:26:01.900Z,-5.60
2024-01-12T04:28:30.128Z,-5.60
2024-01-12T04:30:58.200Z,-5.70
2024-01-12T04:33:26.937Z,-5.70
2024-01-12T04:35:55.646Z,-5.70
2024-01-12T04:38:25.061Z,-5.80
2024-01-12T04:40:53.403Z,-5.70
2024-01-12T04:43:21.876Z,-5.70
2024-01-12T04:45:49.822Z,-5.70
2024-01-12T04:48:17.989Z,-5.70
2024-01-12T04:50:46.139Z,-5.80
2024-01-12T04:53:14.207Z,-5.70
2024-01-12T04:55:43.595Z,-5.70
2024-01-12T04:58:11.675Z,-5.80
2024-01-12T05:00:39.823Z,-5.80
2024-01-12T05:03:07.970Z,-5.90
2024-01-12T05:05:37.783Z,-5.90
2024-01-12T05:08:06.323Z,-5.90
2024-01-12T05:10:34.883Z,-5.90
2024-01-12T05:13:04.500Z,-5.90
2024-01-12T05:15:32.733Z,-5.90
2024-01-12T05:18:01.742Z,-5.90
2024-01-12T05:20:31.137Z,-5.90
2024-01-12T05:22:59.113Z,-5.90
2024-01-12T05:25:27.392Z,-6.00
2024-01-12T05:27:55.746Z,-6.00
2024-01-12T05:30:25.143Z,-6.00
2024-01-12T05:32:53.608Z,-6.00
2024-01-12T05:35:22.209Z,-6.00
2024-01-12T05:37:50.239Z,-6.00
2024-01-12T05:40:18.336Z,-6.10
2024-01-12T05:42:45.317Z,-6.00
2024-01-12T05:45:13.938Z,-6.00
2024-01-12T05:47:44.447Z,-6.00
2024-01-12T05:50:12.943Z,-6.00
2024-01-12T05:52:41.332Z,-6.00
2024-01-12T05:55:09.578Z,-6.00
2024-01-12T05:57:37.560Z,-6.00
2024-01-12T06:00:09.082Z,-6.10
2024-01-12T06:02:37.154Z,-6.10
2024-01-12T06:05:07.861Z,-6.10
2024-01-12T06:07:35.918Z,-6.10
2024-01-12T06:10:05.501Z,-6.10
2024-01-12T06:12:33.842Z,-6.10
2024-01-12T06:15:02.061Z,-6.10
2024-01-12T06:17:30.244Z,-6.10
2024-01-12T06:19:58.256Z,-6.10
2024-01-12T06:22:28.669Z,-6.00
2024-01-12T06:24:56.672Z,-6.00
2024-01-12T06:27:23.747Z,-6.10
2024-01-12T06:29:51.775Z,-6.10
2024-01-12T06:32:22.043Z,-6.00
2024-01-12T06:34:50.008Z,-6.00
2024-01-12T06:37:18.904Z,-6.00
2024-01-12T06:39:49.138Z,-6.00
2024-01-12T06:42:17.710Z,-5.90
2024-01-12T06:44:45.948Z,-5.80
2024-01-12T06:47:14.797Z,-5.80
2024-01-12T06:49:44.690Z,-5.70
2024-01-12T06:52:12.979Z,-5.70
2024-01-12T06:54:44.765Z,-5.70
2024-01-12T06:57:14.219Z,-5.70
2024-01-12T06:59:42.692Z,-5.60
2024-01-12T07:02:10.914Z,-5.60
2024-01-12T07:04:41.992Z,-5.60
2024-01-12T07:07:11.591Z,-5.50
2024-01-12T07:09:41.988Z,-5.40
2024-01-12T07:12:10.617Z,-5.30
2024-01-12T07:14:41.307Z,-5.30
2024-01-12T07:17:09.344Z,-5.20
2024-01-12T07:19:37.713Z,-5.10
2024-01-12T07:22:06.601Z,-5.10
2024-01-12T07:24:35.219Z,-5.00
2024-01-12T07:27:03.232Z,-5.00
2024-01-12T07:29:32.016Z,-4.90
2024-01-12T07:32:01.343Z,-4.80
2024-01-12T07:34:30.770Z,-4.80
2024-01-12T07:36:59.001Z,-4.70
2024-01-12T07:39:27.026Z,-4.60
2024-01-12T07:41:56.498Z,-4.60
2024-01-12T07:44:24.597Z,-4.50
2024-01-12T07:46:52.566Z,-4.50
2024-01-12T07:49:21.941Z,-4.50
2024-01-12T07:51:50.849Z,-4.40
2024-01-12T07:54:18.818Z,-4.40
2024-01-12T07:56:46.917Z,-4.30
2024-01-12T07:59:15.009Z,-4.30
2024-01-12T08:01:44.299Z,-4.20
2024-01-12T08:04:12.307Z,-4.20
2024-01-12T08:06:41.730Z,-4.20
2024-01-12T08:09:10.309Z,-4.10
2024-01-12T08:11:41.051Z,-4.20
2024-01-12T08:14:09.858Z,-4.10
2024-01-12T08:16:37.905Z,-4.00
2024-01-12T08:19:05.971Z,-4.10
2024-01-12T08:21:44.830Z,-4.00
2024-01-12T08:24:18.690Z,-4.10
2024-01-12T08:26:47.557Z,-4.00
2024-01-12T08:29:15.700Z,-4.00
2024-01-12T08:31:44.704Z,-3.90
2024-01-12T08:34:12.865Z,-3.80
2024-01-12T08:36:41.159Z,-3.80
2024-01-12T08:39:09.302Z,-3.80
2024-01-12T08:41:38.661Z,-3.80
2024-01-12T08:44:06.833Z,-3.70
2024-01-12T08:46:35.064Z,-3.70
2024-01-12T08:49:03.184Z,-3.70
2024-01-12T08:51:31.454Z,-3.70
2024-01-12T08:54:00.049Z,-3.60
2024-01-12T08:56:28.345Z,-3.70
2024-01-12T08:58:57.643Z,-3.80
2024-01-12T09:01:25.909Z,-3.70
2024-01-12T09:03:54.841Z,-3.70
2024-01-12T09:06:25.161Z,-3.70
2024-01-12T09:08:53.532Z,-3.60
2024-01-12T09:11:21.979Z,-3.70
2024-01-12T09:13:50.294Z,-3.70
2024-01-12T09:16:19.594Z,-3.70
2024-01-12T09:18:49.860Z,-3.70
2024-01-12T09:21:18.388Z,-3.70
2024-01-12T09:23:47.142Z,-3.50
2024-01-12T09:26:15.251Z,-3.50
2024-01-12T09:28:43.363Z,-3.40
2024-01-12T09:31:11.417Z,-3.40
2024-01-12T09:33:41.160Z,-3.40
2024-01-12T09:36:10.128Z,-3.30
2024-01-12T09:38:38.249Z,-3.30
2024-01-12T09:41:10.023Z,-3.30
2024-01-12T09:43:39.620Z,-3.50
2024-01-12T09:46:10.802Z,-3.60
2024-01-12T09:48:40.839Z,-3.50
2024-01-12T09:51:09.828Z,-3.50
2024-01-12T09:53:38.808Z,-3.40
2024-01-12T09:56:08.453Z,-3.40
2024-01-12T09:58:41.582Z,-3.40
2024-01-12T10:01:11.410Z,-3.40
2024-01-12T10:03:43.217Z,-3.30
2024-01-12T10:06:11.773Z,-3.30
2024-01-12T10:08:41.607Z,-3.30
2024-01-12T10:11:10.609Z,-3.20
2024-01-12T10:13:38.724Z,-3.20
2024-01-12T10:16:08.507Z,-3.30
2024-01-12T10:18:38.360Z,-3.20
2024-01-12T10:21:08.095Z,-3.20
2024-01-12T10:23:36.308Z,-3.20
2024-01-12T10:26:06.694Z,-3.20
2024-01-12T10:28:35.850Z,-3.20
2024-01-12T10:31:08.279Z,-3.10
2024-01-12T10:33:37.713Z,-3.00
2024-01-12T10:36:14.126Z,-3.20
2024-01-12T10:38:42.977Z,-3.30
2024-01-12T10:41:14.092Z,-3.20
2024-01-12T10:43:46.727Z,-3.20
2024-01-12T10:46:34.024Z,-3.10
2024-01-12T10:49:07.490Z,-3.00
2024-01-12T10:51:40.580Z,-2.90
2024-01-12T10:54:15.741Z,-2.90
2024-01-12T10:56:44.004Z,-2.90
2024-01-12T10:59:12.991Z,-2.80
2024-01-12T11:01:43.027Z,-2.90
2024-01-12T11:04:12.968Z,-2.80
2024-01-12T11:06:46.039Z,-2.70
2024-01-12T11:09:17.552Z,-2.60
2024-01-12T11:11:53.831Z,-2.80
2024-01-12T11:14:22.657Z,-2.80
2024-01-12T11:16:51.953Z,-2.70
2024-01-12T11:19:23.126Z,-2.80
2024-01-12T11:22:04.085Z,-2.70
2024-01-12T11:24:32.704Z,-2.80
2024-01-12T11:27:01.221Z,-2.70
2024-01-12T11:29:33.071Z,-2.70
2024-01-12T11:32:04.180Z,-2.70
2024-01-12T11:34:35.119Z,-2.80
2024-01-12T11:37:06.056Z,-2.80
2024-01-12T11:39:35.009Z,-2.70
2024-01-12T11:42:04.844Z,-2.70
2024-01-12T11:44:34.632Z,-2.70
2024-01-12T11:47:03.912Z,-2.60
2024-01-12T11:49:32.517Z,-2.70
2024-01-12T11:52:06.778Z,-2.80
2024-01-12T11:54:35.747Z,-2.60
2024-01-12T11:57:05.310Z,-2.60
2024-01-12T11:59:34.809Z,-2.60
2024-01-12T12:02:05.633Z,-2.60
2024-01-12T12:04:33.748Z,-2.70
2024-01-12T12:07:01.925Z,-2.70
2024-01-12T12:09:33.864Z,-2.70
2024-01-12T12:12:02.727Z,-2.70
2024-01-12T12:14:31.746Z,-2.60
2024-01-12T12:16:59.735Z,-2.60
2024-01-12T12:19:28.452Z,-2.50
2024-01-12T12:21:56.802Z,-2.70
2024-01-12T12:24:25.545Z,-2.60
2024-01-12T12:26:54.839Z,-2.50
2024-01-12T12:29:24.863Z,-2.50
2024-01-12T12:31:52.960Z,-2.50
2024-01-12T12:34:22.105Z,-2.60
2024-01-12T12:36:51.764Z,-2.50
2024-01-12T12:39:20.743Z,-2.50
2024-01-12T12:41:48.933Z,-2.50
2024-01-12T12:44:19.533Z,-2.50
2024-01-12T12:46:47.864Z,-2.60
2024-01-12T12:49:16.149Z,-2.60
2024-01-12T12:51:44.525Z,-2.50
2024-01-12T12:54:14.375Z,-2.50
2024-01-12T12:56:42.721Z,-2.60
2024-01-12T12:59:12.046Z,-2.60
2024-01-12T13:01:41.904Z,-2.60
2024-01-12T13:04:11.198Z,-2.60
2024-01-12T13:06:40.312Z,-2.60
2024-01-12T13:09:08.517Z,-2.70
2024-01-12T13:11:37.566Z,-2.70
2024-01-12T13:14:08.723Z,-2.60
2024-01-12T13:16:38.826Z,-2.80
2024-01-12T13:19:15.043Z,-2.70
2024-01-12T13:21:51.501Z,-2.80
2024-01-12T13:24:19.571Z,-2.80
2024-01-12T13:26:47.834Z,-2.80
2024-01-12T13:29:16.024Z,-2.70
2024-01-12T13:31:44.840Z,-2.80
2024-01-12T13:34:17.024Z,-2.80
2024-01-12T13:36:46.116Z,-2.90
2024-01-12T13:39:14.192Z,-2.90
2024-01-12T13:41:43.267Z,-2.90
2024-01-12T13:44:11.483Z,-3.00
2024-01-12T13:46:39.785Z,-2.80
2024-01-12T13:49:07.958Z,-2.80
2024-01-12T13:51:37.374Z,-2.90
2024-01-12T13:54:06.811Z,-2.90
2024-01-12T13:56:34.923Z,-2.80
2024-01-12T13:59:06.392Z,-2.90
2024-01-12T14:01:35.445Z,-2.90
2024-01-12T14:04:07.013Z,-3.00
2024-01-12T14:06:38.336Z,-2.90
2024-01-12T14:09:08.164Z,-2.80
2024-01-12T14:11:37.656Z,-2.80
2024-01-12T14:14:06.141Z,-2.80
2024-01-12T14:16:34.509Z,-2.80
2024-01-12T14:19:02.835Z,-3.00
2024-01-12T14:21:32.671Z,-3.00
2024-01-12T14:24:02.105Z,-3.00
2024-01-12T14:26:30.543Z,-2.90
2024-01-12T14:28:58.575Z,-2.90
2024-01-12T14:31:27.155Z,-2.90
2024-01-12T14:33:58.089Z,-2.80
2024-01-12T14:36:26.447Z,-2.80
2024-01-12T14:38:54.795Z,-2.70
2024-01-12T14:41:24.458Z,-2.70
2024-01-12T14:43:52.470Z,-2.80
2024-01-12T14:46:22.143Z,-2.80
2024-01-12T14:48:50.945Z,-2.80
2024-01-12T14:51:19.282Z,-2.80
2024-01-12T14:53:48.770Z,-2.80
2024-01-12T14:56:19.351Z,-2.90
2024-01-12T14:58:49.449Z,-2.80
2024-01-12T15:01:19.088Z,-2.80
2024-01-12T15:03:47.167Z,-2.80
2024-01-12T15:06:15.415Z,-2.80
2024-01-12T15:08:43.683Z,-2.90
2024-01-12T15:11:12.439Z,-3.00
2024-01-12T15:13:40.582Z,-3.10
2024-01-12T15:16:11.581Z,-3.10
2024-01-12T15:18:41.593Z,-3.10
2024-01-12T15:21:09.885Z,-3.00
2024-01-12T15:23:37.935Z,-3.00
2024-01-12T15:26:10.068Z,-3.10
2024-01-12T15:28:38.311Z,-3.20
2024-01-12T15:31:06.599Z,-3.20
2024-01-12T15:33:36.603Z,-3.20
2024-01-12T15:36:04.937Z,-3.20
2024-01-12T15:38:33.209Z,-3.20
2024-01-12T15:41:03.560Z,-3.30
2024-01-12T15:43:31.785Z,-3.20
2024-01-12T15:46:00.598Z,-3.20
2024-01-12T15:48:29.738Z,-3.20
2024-01-12T15:50:59.385Z,-3.20
2024-01-12T15:53:27.950Z,-3.20
2024-01-12T15:55:56.509Z,-3.20
2024-01-12T15:58:24.489Z,-3.30
2024-01-12T16:00:53.346Z,-3.20
2024-01-12T16:03:22.834Z,-3.30
2024-01-12T16:05:51.110Z,-3.40
2024-01-12T16:08:20.819Z,-3.40
2024-01-12T16:10:48.835Z,-3.50
2024-01-12T16:13:16.813Z,-3.50
2024-01-12T16:15:44.807Z,-3.50
2024-01-12T16:18:14.463Z,-3.40
2024-01-12T16:20:42.965Z,-3.40
2024-01-12T16:23:10.996Z,-3.50
2024-01-12T16:25:41.967Z,-3.40
2024-01-12T16:28:10.095Z,-3.40
2024-01-12T16:30:38.350Z,-3.50
2024-01-12T16:33:06.951Z,-3.50
2024-01-12T16:35:36.194Z,-3.50
2024-01-12T16:38:04.248Z,-3.50
2024-01-12T16:40:32.793Z,-3.50
2024-01-12T16:43:02.240Z,-3.50
2024-01-12T16:45:30.506Z,-3.60
2024-01-12T16:47:58.611Z,-3.60
2024-01-12T16:50:26.587Z,-3.50
2024-01-12T16:52:54.668Z,-3.40
2024-01-12T16:55:23.750Z,-3.40
2024-01-12T16:57:52.770Z,-3.40
2024-01-12T17:00:22.669Z,-3.30
2024-01-12T17:02:50.803Z,-3.30
2024-01-12T17:05:19.068Z,-3.40
2024-01-12T17:07:48.223Z,-3.40
2024-01-12T17:10:16.649Z,-3.40
2024-01-12T17:12:45.417Z,-3.40
2024-01-12T17:15:17.330Z,-3.40
2024-01-12T17:17:47.228Z,-3.30
2024-01-12T17:20:15.708Z,-3.30
2024-01-12T17:22:44.794Z,-3.30
2024-01-12T17:25:13.254Z,-3.30
2024-01-12T17:27:41.564Z,-3.30
2024-01-12T17:30:11.552Z,-3.30
2024-01-12T17:32:42.493Z,-3.20
2024-01-12T17:35:12.545Z,-3.20
2024-01-12T17:37:42.491Z,-3.20
2024-01-12T17:40:11.285Z,-3.20
2024-01-12T17:42:40.299Z,-3.10
2024-01-12T17:45:10.020Z,-3.10
2024-01-12T17:47:38.583Z,-3.10
2024-01-12T17:50:09.676Z,-3.00
2024-01-12T17:52:38.952Z,-3.00
2024-01-12T17:55:08.994Z,-3.10
2024-01-12T17:57:38.831Z,-3.00
2024-01-12T18:00:08.542Z,-3.00
2024-01-12T18:02:36.902Z,-3.00
2024-01-12T18:05:06.032Z,-3.00
2024-01-12T18:07:34.263Z,-3.00
2024-01-12T18:10:04.084Z,-3.00
2024-01-12T18:12:32.063Z,-3.00
2024-01-12T18:15:00.311Z,-2.90
2024-01-12T18:17:28.633Z,-2.90
2024-01-12T18:19:57.088Z,-2.90
2024-01-12T18:22:25.705Z,-2.90
2024-01-12T18:24:53.939Z,-2.90
2024-01-12T18:27:24.314Z,-2.90
2024-01-12T18:29:54.559Z,-2.90
2024-01-12T18:32:22.849Z,-2.90
2024-01-12T18:34:52.351Z,-2.80
2024-01-12T18:37:20.974Z,-2.80
2024-01-12T18:39:48.990Z,-2.80
2024-01-12T18:42:17.166Z,-2.80
2024-01-12T18:44:46.536Z,-2.80
2024-01-12T18:47:14.584Z,-2.80
2024-01-12T18:49:42.617Z,-2.80
2024-01-12T18:52:10.666Z,-2.90
2024-01-12T18:54:38.888Z,-2.90
2024-01-12T18:57:10.901Z,-2.80
2024-01-12T18:59:39.677Z,-2.80
2024-01-12T19:02:09.189Z,-2.80
2024-01-12T19:04:37.276Z,-2.80
2024-01-12T19:07:05.531Z,-2.70
2024-01-12T19:09:33.526Z,-2.70
2024-01-12T19:12:02.180Z,-2.70
2024-01-12T19:14:30.236Z,-2.70
2024-01-12T19:16:59.016Z,-2.70
2024-01-12T19:19:30.387Z,-2.70
2024-01-12T19:21:58.440Z,-2.70
2024-01-12T19:24:26.731Z,-2.70
2024-01-12T19:26:54.997Z,-2.70
2024-01-12T19:29:23.238Z,-2.70
2024-01-12T19:31:51.295Z,-2.70
2024-01-12T19:34:18.644Z,-2.80
2024-01-12T19:36:48.545Z,-2.80
2024-01-12T19:39:17.114Z,-2.80
2024-01-12T19:41:45.613Z,-2.70
2024-01-12T19:44:13.655Z,-2.70
2024-01-12T19:46:41.664Z,-2.70
2024-01-12T19:49:11.640Z,-2.70
2024-01-12T19:51:40.211Z,-2.70
2024-01-12T19:54:09.608Z,-2.70
2024-01-12T19:56:37.904Z,-2.70
2024-01-12T19:59:06.480Z,-2.70
2024-01-12T20:01:34.740Z,-2.70
2024-01-12T20:04:05.750Z,-2.70
2024-01-12T20:06:34.106Z,-2.80
2024-01-12T20:09:02.546Z,-2.80
2024-01-12T20:11:32.936Z,-2.80
2024-01-12T20:14:02.373Z,-2.70
2024-01-12T20:16:31.505Z,-2.70
2024-01-12T20:19:00.545Z,-2.70
2024-01-12T20:21:29.087Z,-2.70
2024-01-12T20:23:57.473Z,-2.70
2024-01-12T20:26:25.917Z,-2.60
2024-01-12T20:28:55.330Z,-2.70
2024-01-12T20:31:23.302Z,-2.70
2024-01-12T20:33:51.524Z,-2.60
2024-01-12T20:36:20.058Z,-2.60
2024-01-12T20:38:50.470Z,-2.60
2024-01-12T20:41:18.941Z,-2.70
2024-01-12T20:43:47.818Z,-2.70
2024-01-12T20:46:17.378Z,-2.60
2024-01-12T20:48:45.876Z,-2.70
2024-01-12T20:51:13.958Z,-2.70
2024-01-12T20:53:42.214Z,-2.70
2024-01-12T20:56:10.453Z,-2.70
2024-01-12T20:58:38.594Z,-2.70
2024-01-12T21:01:06.612Z,-2.70
2024-01-12T21:03:36.290Z,-2.60
2024-01-12T21:06:04.738Z,-2.60
2024-01-12T21:08:32.985Z,-2.60
2024-01-12T21:11:02.043Z,-2.60
2024-01-12T21:13:29.954Z,-2.60
2024-01-12T21:16:00.530Z,-2.60
2024-01-12T21:18:28.997Z,-2.60
2024-01-12T21:20:58.428Z,-2.60
2024-01-12T21:23:26.974Z,-2.60
2024-01-12T21:25:55.857Z,-2.60
2024-01-12T21:28:24.755Z,-2.60
2024-01-12T21:30:53.673Z,-2.60
2024-01-12T21:33:22.411Z,-2.60
2024-01-12T21:35:50.686Z,-2.50
2024-01-12T21:38:21.017Z,-2.50
2024-01-12T21:40:50.499Z,-2.50
2024-01-12T21:43:19.454Z,-2.60
2024-01-12T21:45:48.147Z,-2.50
2024-01-12T21:48:16.681Z,-2.50
2024-01-12T21:50:45.202Z,-2.50
2024-01-12T21:53:14.132Z,-2.50
2024-01-12T21:55:43.894Z,-2.50
2024-01-12T21:58:11.907Z,-2.60
2024-01-12T22:00:39.962Z,-2.50
2024-01-12T22:03:08.070Z,-2.50
2024-01-12T22:05:36.185Z,-2.50
2024-01-12T22:08:04.556Z,-2.60
2024-01-12T22:10:33.481Z,-2.60
2024-01-12T22:13:03.072Z,-2.60
2024-01-12T22:15:31.341Z,-2.60
2024-01-12T22:17:59.687Z,-2.60
2024-01-12T22:20:27.692Z,-2.50
2024-01-12T22:22:55.657Z,-2.60
2024-01-12T22:25:23.871Z,-2.60
2024-01-12T22:27:51.870Z,-2.60
2024-01-12T22:30:21.910Z,-2.70
2024-01-12T22:32:51.281Z,-2.70
2024-01-12T22:35:19.367Z,-2.60
2024-01-12T22:37:47.717Z,-2.70
2024-01-12T22:40:16.411Z,-2.80
2024-01-12T22:42:44.741Z,-2.80
2024-01-12T22:45:12.855Z,-2.80
2024-01-12T22:47:42.478Z,-2.90
2024-01-12T22:50:10.958Z,-2.80
2024-01-12T22:52:40.884Z,-2.80
2024-01-12T22:55:10.306Z,-2.80
2024-01-12T22:57:38.706Z,-2.70
2024-01-12T23:00:25.356Z,-2.70
2024-01-12T23:02:57.735Z,-2.80
2024-01-12T23:05:26.498Z,-2.80
2024-01-12T23:07:54.519Z,-2.70
2024-01-12T23:10:23.227Z,-2.80
2024-01-12T23:12:51.222Z,-2.80
2024-01-12T23:15:19.945Z,-2.80
2024-01-12T23:17:48.074Z,-2.80
2024-01-12T23:20:20.234Z,-2.80
2024-01-12T23:22:49.064Z,-2.80
2024-01-12T23:25:17.120Z,-2.80
2024-01-12T23:27:45.587Z,-2.80
2024-01-12T23:30:14.490Z,-2.80
2024-01-12T23:32:44.039Z,-2.90
2024-01-12T23:35:12.577Z,-2.90
2024-01-12T23:37:42.034Z,-2.80
2024-01-12T23:40:11.350Z,-2.80
2024-01-12T23:42:40.022Z,-2.90
2024-01-12T23:45:08.948Z,-2.90
2024-01-12T23:47:38.436Z,-2.90
2024-01-12T23:50:08.032Z,-2.90
2024-01-12T23:52:36.057Z,-2.90
2024-01-12T23:55:06.932Z,-2.90
2024-01-12T23:57:36.117Z,-3.00
